sensor_id;sensor_type;location;lat;lon;timestamp;temperature;humidity
49218;DHT22;35045;51.194;7.268;2022-09-17T00:00:33;9.70;99.90
49218;DHT22;35045;51.194;7.268;2022-09-17T00:03:00;9.70;99.90
49218;DHT22;35045;51.194;7.268;2022-09-17T00:05:27;9.70;99.90
49218;DHT22;35045;51.194;7.268;2022-09-17T00:07:53;9.80;99.90
49218;DHT22;35045;51.194;7.268;2022-09-17T00:10:20;9.80;99.90
49218;DHT22;35045;51.194;7.268;2022-09-17T00:12:48;9.70;99.90
49218;DHT22;35045;51.194;7.268;2022-09-17T00:15:14;9.70;99.90
49218;DHT22;35045;51.194;7.268;2022-09-17T00:17:41;9.80;99.90
49218;DHT22;35045;51.194;7.268;2022-09-17T00:20:08;9.80;99.90
49218;DHT22;35045;51.194;7.268;2022-09-17T00:22:37;9.80;99.90
49218;DHT22;35045;51.194;7.268;2022-09-17T00:25:04;9.80;99.90
49218;DHT22;35045;51.194;7.268;2022-09-17T00:27:31;9.80;99.90
49218;DHT22;35045;51.194;7.268;2022-09-17T00:29:58;9.80;99.90
49218;DHT22;35045;51.194;7.268;2022-09-17T00:32:24;9.80;99.90
49218;DHT22;35045;51.194;7.268;2022-09-17T00:34:51;9.80;99.90
49218;DHT22;35045;51.194;7.268;2022-09-17T00:37:18;9.70;99.90
49218;DHT22;35045;51.194;7.268;2022-09-17T00:39:44;9.70;99.90
49218;DHT22;35045;51.194;7.268;2022-09-17T00:42:12;9.80;99.90
49218;DHT22;35045;51.194;7.268;2022-09-17T00:44:46;9.80;99.90
49218;DHT22;35045;51.194;7.268;2022-09-17T00:47:27;9.80;99.90
49218;DHT22;35045;51.194;7.268;2022-09-17T00:49:58;9.70;99.90
49218;DHT22;35045;51.194;7.268;2022-09-17T00:52:29;9.80;99.90
49218;DHT22;35045;51.194;7.268;2022-09-17T00:55:02;9.70;99.90
49218;DHT22;35045;51.194;7.268;2022-09-17T00:57:30;9.70;99.90
49218;DHT22;35045;51.194;7.268;2022-09-17T00:59:56;9.70;99.90
49218;DHT22;35045;51.194;7.268;2022-09-17T01:02:24;9.70;99.90
49218;DHT22;35045;51.194;7.268;2022-09-17T01:04:50;9.70;99.90
49218;DHT22;35045;51.194;7.268;2022-09-17T01:12:52;9.70;99.90
49218;DHT22;35045;51.194;7.268;2022-09-17T01:15:25;9.70;99.90
49218;DHT22;35045;51.194;7.268;2022-09-17T01:26:49;9.70;99.90
49218;DHT22;35045;51.194;7.268;2022-09-17T01:29:35;9.60;99.90
49218;DHT22;35045;51.194;7.268;2022-09-17T01:34:57;9.60;99.90
49218;DHT22;35045;51.194;7.268;2022-09-17T01:37:36;9.60;99.90
49218;DHT22;35045;51.194;7.268;2022-09-17T01:40:19;9.60;99.90
49218;DHT22;35045;51.194;7.268;2022-09-17T01:45:37;9.60;99.90
49218;DHT22;35045;51.194;7.268;2022-09-17T01:48:18;9.60;99.90
49218;DHT22;35045;51.194;7.268;2022-09-17T01:50:52;9.60;99.90
49218;DHT22;35045;51.194;7.268;2022-09-17T01:53:23;9.60;99.90
49218;DHT22;35045;51.194;7.268;2022-09-17T01:55:52;9.60;99.90
49218;DHT22;35045;51.194;7.268;2022-09-17T01:58:25;9.70;99.90
49218;DHT22;35045;51.194;7.268;2022-09-17T02:00:59;9.70;99.90
49218;DHT22;35045;51.194;7.268;2022-09-17T02:04:08;9.60;99.90
49218;DHT22;35045;51.194;7.268;2022-09-17T02:06:40;9.60;99.90
49218;DHT22;35045;51.194;7.268;2022-09-17T02:09:33;9.60;99.90
49218;DHT22;35045;51.194;7.268;2022-09-17T02:12:04;9.50;99.90
49218;DHT22;35045;51.194;7.268;2022-09-17T02:14:43;9.60;99.90
49218;DHT22;35045;51.194;7.268;2022-09-17T02:17:19;9.60;99.90
49218;DHT22;35045;51.194;7.268;2022-09-17T02:19:45;9.60;99.90
49218;DHT22;35045;51.194;7.268;2022-09-17T02:22:25;9.60;99.90
49218;DHT22;35045;51.194;7.268;2022-09-17T02:25:19;9.60;99.90
49218;DHT22;35045;51.194;7.268;2022-09-17T02:30:18;9.60;99.90
49218;DHT22;35045;51.194;7.268;2022-09-17T02:32:44;9.60;99.90
49218;DHT22;35045;51.194;7.268;2022-09-17T02:35:12;9.50;99.90
49218;DHT22;35045;51.194;7.268;2022-09-17T02:37:40;9.50;99.90
49218;DHT22;35045;51.194;7.268;2022-09-17T02:40:08;9.60;99.90
49218;DHT22;35045;51.194;7.268;2022-09-17T02:51:54;9.70;99.90
49218;DHT22;35045;51.194;7.268;2022-09-17T02:57:19;9.70;99.90
49218;DHT22;35045;51.194;7.268;2022-09-17T03:00:06;9.70;99.90
49218;DHT22;35045;51.194;7.268;2022-09-17T03:02:38;9.70;99.90
49218;DHT22;35045;51.194;7.268;2022-09-17T03:05:07;9.70;99.90
49218;DHT22;35045;51.194;7.268;2022-09-17T03:07:34;9.70;99.90
49218;DHT22;35045;51.194;7.268;2022-09-17T03:10:01;9.70;99.90
49218;DHT22;35045;51.194;7.268;2022-09-17T03:12:27;9.70;99.90
49218;DHT22;35045;51.194;7.268;2022-09-17T03:14:54;9.70;99.90
49218;DHT22;35045;51.194;7.268;2022-09-17T03:17:20;9.70;99.90
49218;DHT22;35045;51.194;7.268;2022-09-17T03:19:46;9.70;99.90
49218;DHT22;35045;51.194;7.268;2022-09-17T03:22:12;9.70;99.90
49218;DHT22;35045;51.194;7.268;2022-09-17T03:24:38;9.70;99.90
49218;DHT22;35045;51.194;7.268;2022-09-17T03:27:04;9.70;99.90
49218;DHT22;35045;51.194;7.268;2022-09-17T03:29:31;9.80;99.90
49218;DHT22;35045;51.194;7.268;2022-09-17T03:31:57;9.70;99.90
49218;DHT22;35045;51.194;7.268;2022-09-17T03:34:23;9.70;99.90
49218;DHT22;35045;51.194;7.268;2022-09-17T03:36:49;9.70;99.90
49218;DHT22;35045;51.194;7.268;2022-09-17T03:39:15;9.70;99.90
49218;DHT22;35045;51.194;7.268;2022-09-17T03:41:41;9.70;99.90
49218;DHT22;35045;51.194;7.268;2022-09-17T03:44:08;9.70;99.90
49218;DHT22;35045;51.194;7.268;2022-09-17T03:46:35;9.60;99.90
49218;DHT22;35045;51.194;7.268;2022-09-17T03:49:02;9.60;99.90
49218;DHT22;35045;51.194;7.268;2022-09-17T03:51:29;9.60;99.90
49218;DHT22;35045;51.194;7.268;2022-09-17T03:53:55;9.70;99.90
49218;DHT22;35045;51.194;7.268;2022-09-17T03:56:22;9.60;99.90
49218;DHT22;35045;51.194;7.268;2022-09-17T03:58:48;9.60;99.90
49218;DHT22;35045;51.194;7.268;2022-09-17T04:01:14;9.60;99.90
49218;DHT22;35045;51.194;7.268;2022-09-17T04:03:40;9.60;99.90
49218;DHT22;35045;51.194;7.268;2022-09-17T04:06:07;9.60;99.90
49218;DHT22;35045;51.194;7.268;2022-09-17T04:08:33;9.50;99.90
49218;DHT22;35045;51.194;7.268;2022-09-17T04:11:01;9.60;99.90
49218;DHT22;35045;51.194;7.268;2022-09-17T04:13:28;9.60;99.90
49218;DHT22;35045;51.194;7.268;2022-09-17T04:15:54;9.50;99.90
49218;DHT22;35045;51.194;7.268;2022-09-17T04:18:20;9.50;99.90
49218;DHT22;35045;51.194;7.268;2022-09-17T04:20:46;9.50;99.90
49218;DHT22;35045;51.194;7.268;2022-09-17T04:23:12;9.60;99.90
49218;DHT22;35045;51.194;7.268;2022-09-17T04:25:39;9.60;99.90
49218;DHT22;35045;51.194;7.268;2022-09-17T04:28:05;9.60;99.90
49218;DHT22;35045;51.194;7.268;2022-09-17T04:30:32;9.60;99.90
49218;DHT22;35045;51.194;7.268;2022-09-17T04:32:58;9.70;99.90
49218;DHT22;35045;51.194;7.268;2022-09-17T04:35:24;9.70;99.90
49218;DHT22;35045;51.194;7.268;2022-09-17T04:37:57;9.70;99.90
49218;DHT22;35045;51.194;7.268;2022-09-17T04:40:24;9.70;99.90
49218;DHT22;35045;51.194;7.268;2022-09-17T04:42:52;9.70;99.90
49218;DHT22;35045;51.194;7.268;2022-09-17T04:45:19;9.70;99.90
49218;DHT22;35045;51.194;7.268;2022-09-17T04:47:45;9.80;99.90
49218;DHT22;35045;51.194;7.268;2022-09-17T04:50:12;9.70;99.90
49218;DHT22;35045;51.194;7.268;2022-09-17T04:52:42;9.70;99.90
49218;DHT22;35045;51.194;7.268;2022-09-17T04:55:09;9.70;99.90
49218;DHT22;35045;51.194;7.268;2022-09-17T04:57:35;9.60;99.90
49218;DHT22;35045;51.194;7.268;2022-09-17T05:00:03;9.70;99.90
49218;DHT22;35045;51.194;7.268;2022-09-17T05:02:29;9.70;99.90
49218;DHT22;35045;51.194;7.268;2022-09-17T05:04:56;9.70;99.90
49218;DHT22;35045;51.194;7.268;2022-09-17T05:07:22;9.70;99.90
49218;DHT22;35045;51.194;7.268;2022-09-17T05:09:48;9.70;99.90
49218;DHT22;35045;51.194;7.268;2022-09-17T05:12:14;9.70;99.90
49218;DHT22;35045;51.194;7.268;2022-09-17T05:14:40;9.70;99.90
49218;DHT22;35045;51.194;7.268;2022-09-17T05:17:06;9.70;99.90
49218;DHT22;35045;51.194;7.268;2022-09-17T05:19:32;9.70;99.90
49218;DHT22;35045;51.194;7.268;2022-09-17T05:21:59;9.70;99.90
49218;DHT22;35045;51.194;7.268;2022-09-17T05:24:25;9.70;99.90
49218;DHT22;35045;51.194;7.268;2022-09-17T05:26:52;9.70;99.90
49218;DHT22;35045;51.194;7.268;2022-09-17T05:29:18;9.70;99.90
49218;DHT22;35045;51.194;7.268;2022-09-17T05:31:44;9.70;99.90
49218;DHT22;35045;51.194;7.268;2022-09-17T05:34:10;9.70;99.90
49218;DHT22;35045;51.194;7.268;2022-09-17T05:36:36;9.70;99.90
49218;DHT22;35045;51.194;7.268;2022-09-17T05:39:03;9.70;99.90
49218;DHT22;35045;51.194;7.268;2022-09-17T05:41:29;9.70;99.90
49218;DHT22;35045;51.194;7.268;2022-09-17T05:43:55;9.70;99.90
49218;DHT22;35045;51.194;7.268;2022-09-17T05:46:21;9.70;99.90
49218;DHT22;35045;51.194;7.268;2022-09-17T05:48:47;9.70;99.90
49218;DHT22;35045;51.194;7.268;2022-09-17T05:51:14;9.80;99.90
49218;DHT22;35045;51.194;7.268;2022-09-17T05:53:41;9.70;99.90
49218;DHT22;35045;51.194;7.268;2022-09-17T05:56:07;9.70;99.90
49218;DHT22;35045;51.194;7.268;2022-09-17T05:58:33;9.70;99.90
49218;DHT22;35045;51.194;7.268;2022-09-17T06:01:00;9.70;99.90
49218;DHT22;35045;51.194;7.268;2022-09-17T06:03:26;9.80;99.90
49218;DHT22;35045;51.194;7.268;2022-09-17T06:05:57;9.80;99.90
49218;DHT22;35045;51.194;7.268;2022-09-17T06:08:25;9.70;99.90
49218;DHT22;35045;51.194;7.268;2022-09-17T06:10:52;9.80;99.90
49218;DHT22;35045;51.194;7.268;2022-09-17T06:13:19;9.80;99.90
49218;DHT22;35045;51.194;7.268;2022-09-17T06:15:49;9.90;99.90
49218;DHT22;35045;51.194;7.268;2022-09-17T06:18:16;10.00;99.90
49218;DHT22;35045;51.194;7.268;2022-09-17T06:20:51;9.90;99.90
49218;DHT22;35045;51.194;7.268;2022-09-17T06:23:18;10.00;99.90
49218;DHT22;35045;51.194;7.268;2022-09-17T06:25:52;10.00;99.90
49218;DHT22;35045;51.194;7.268;2022-09-17T06:28:19;9.90;99.90
49218;DHT22;35045;51.194;7.268;2022-09-17T06:30:45;9.90;99.90
49218;DHT22;35045;51.194;7.268;2022-09-17T06:33:12;9.90;99.90
49218;DHT22;35045;51.194;7.268;2022-09-17T06:35:38;9.90;99.90
49218;DHT22;35045;51.194;7.268;2022-09-17T06:38:05;10.00;99.90
49218;DHT22;35045;51.194;7.268;2022-09-17T06:40:31;10.00;99.90
49218;DHT22;35045;51.194;7.268;2022-09-17T06:42:59;10.10;99.90
49218;DHT22;35045;51.194;7.268;2022-09-17T06:45:26;10.10;99.90
49218;DHT22;35045;51.194;7.268;2022-09-17T06:47:52;10.10;99.90
49218;DHT22;35045;51.194;7.268;2022-09-17T06:50:18;10.10;99.90
49218;DHT22;35045;51.194;7.268;2022-09-17T06:52:52;10.10;99.90
49218;DHT22;35045;51.194;7.268;2022-09-17T06:55:19;10.10;99.90
49218;DHT22;35045;51.194;7.268;2022-09-17T06:57:46;10.00;99.90
49218;DHT22;35045;51.194;7.268;2022-09-17T07:00:13;10.00;99.90
49218;DHT22;35045;51.194;7.268;2022-09-17T07:02:39;10.00;99.90
49218;DHT22;35045;51.194;7.268;2022-09-17T07:05:06;10.00;99.90
49218;DHT22;35045;51.194;7.268;2022-09-17T07:07:32;10.00;99.90
49218;DHT22;35045;51.194;7.268;2022-09-17T07:10:01;10.00;99.90
49218;DHT22;35045;51.194;7.268;2022-09-17T07:12:27;10.00;99.90
49218;DHT22;35045;51.194;7.268;2022-09-17T07:14:54;10.00;99.90
49218;DHT22;35045;51.194;7.268;2022-09-17T07:17:20;10.00;99.90
49218;DHT22;35045;51.194;7.268;2022-09-17T07:19:47;10.00;99.90
49218;DHT22;35045;51.194;7.268;2022-09-17T07:22:13;10.00;99.90
49218;DHT22;35045;51.194;7.268;2022-09-17T07:24:39;10.00;99.90
49218;DHT22;35045;51.194;7.268;2022-09-17T07:27:05;10.00;99.90
49218;DHT22;35045;51.194;7.268;2022-09-17T07:29:32;10.00;99.90
49218;DHT22;35045;51.194;7.268;2022-09-17T07:31:58;10.00;99.90
49218;DHT22;35045;51.194;7.268;2022-09-17T07:34:24;10.10;99.90
49218;DHT22;35045;51.194;7.268;2022-09-17T07:36:53;10.20;99.90
49218;DHT22;35045;51.194;7.268;2022-09-17T07:39:20;10.30;99.90
49218;DHT22;35045;51.194;7.268;2022-09-17T07:41:46;10.40;99.90
49218;DHT22;35045;51.194;7.268;2022-09-17T07:44:12;10.50;99.90
49218;DHT22;35045;51.194;7.268;2022-09-17T07:46:38;10.70;99.90
49218;DHT22;35045;51.194;7.268;2022-09-17T07:49:04;10.70;99.90
49218;DHT22;35045;51.194;7.268;2022-09-17T07:51:30;10.80;99.90
49218;DHT22;35045;51.194;7.268;2022-09-17T07:53:58;10.80;99.90
49218;DHT22;35045;51.194;7.268;2022-09-17T07:56:26;10.90;99.90
49218;DHT22;35045;51.194;7.268;2022-09-17T07:58:52;10.90;99.90
49218;DHT22;35045;51.194;7.268;2022-09-17T08:01:19;11.00;99.90
49218;DHT22;35045;51.194;7.268;2022-09-17T08:03:52;11.20;99.90
49218;DHT22;35045;51.194;7.268;2022-09-17T08:06:23;11.30;99.90
49218;DHT22;35045;51.194;7.268;2022-09-17T08:08:51;11.30;99.90
49218;DHT22;35045;51.194;7.268;2022-09-17T08:11:20;11.30;99.90
49218;DHT22;35045;51.194;7.268;2022-09-17T08:14:09;11.20;99.90
49218;DHT22;35045;51.194;7.268;2022-09-17T08:16:36;11.20;99.90
49218;DHT22;35045;51.194;7.268;2022-09-17T08:19:02;11.10;99.90
49218;DHT22;35045;51.194;7.268;2022-09-17T08:21:28;11.10;99.90
49218;DHT22;35045;51.194;7.268;2022-09-17T08:23:54;11.20;99.90
49218;DHT22;35045;51.194;7.268;2022-09-17T08:26:22;11.30;99.90
49218;DHT22;35045;51.194;7.268;2022-09-17T08:28:52;11.30;99.90
49218;DHT22;35045;51.194;7.268;2022-09-17T08:31:21;11.40;99.90
49218;DHT22;35045;51.194;7.268;2022-09-17T08:33:48;11.60;99.90
49218;DHT22;35045;51.194;7.268;2022-09-17T08:36:17;11.70;99.90
49218;DHT22;35045;51.194;7.268;2022-09-17T08:38:44;11.70;99.90
49218;DHT22;35045;51.194;7.268;2022-09-17T08:46:49;12.20;99.90
49218;DHT22;35045;51.194;7.268;2022-09-17T08:49:30;12.30;99.90
49218;DHT22;35045;51.194;7.268;2022-09-17T08:52:09;12.30;99.90
49218;DHT22;35045;51.194;7.268;2022-09-17T09:00:10;12.20;99.90
49218;DHT22;35045;51.194;7.268;2022-09-17T09:08:31;12.30;99.90
49218;DHT22;35045;51.194;7.268;2022-09-17T09:11:01;12.30;99.90
49218;DHT22;35045;51.194;7.268;2022-09-17T09:13:43;12.40;99.90
49218;DHT22;35045;51.194;7.268;2022-09-17T09:16:14;12.50;99.90
49218;DHT22;35045;51.194;7.268;2022-09-17T09:18:42;12.60;99.90
49218;DHT22;35045;51.194;7.268;2022-09-17T09:21:27;12.70;99.90
49218;DHT22;35045;51.194;7.268;2022-09-17T09:23:56;12.60;99.90
49218;DHT22;35045;51.194;7.268;2022-09-17T09:26:47;12.70;99.90
49218;DHT22;35045;51.194;7.268;2022-09-17T09:34:44;12.60;99.90
49218;DHT22;35045;51.194;7.268;2022-09-17T09:37:30;12.50;99.90
49218;DHT22;35045;51.194;7.268;2022-09-17T09:40:22;12.70;99.90
49218;DHT22;35045;51.194;7.268;2022-09-17T09:42:52;12.90;99.90
49218;DHT22;35045;51.194;7.268;2022-09-17T09:45:48;12.90;99.90
49218;DHT22;35045;51.194;7.268;2022-09-17T09:48:43;13.00;99.90
49218;DHT22;35045;51.194;7.268;2022-09-17T09:56:50;13.40;99.90
49218;DHT22;35045;51.194;7.268;2022-09-17T09:59:18;13.40;99.90
49218;DHT22;35045;51.194;7.268;2022-09-17T10:01:45;13.10;99.90
49218;DHT22;35045;51.194;7.268;2022-09-17T10:04:22;13.10;99.90
49218;DHT22;35045;51.194;7.268;2022-09-17T10:09:25;13.60;99.90
49218;DHT22;35045;51.194;7.268;2022-09-17T10:14:42;13.70;99.90
49218;DHT22;35045;51.194;7.268;2022-09-17T10:20:07;13.40;99.90
49218;DHT22;35045;51.194;7.268;2022-09-17T10:22:42;13.30;99.90
49218;DHT22;35045;51.194;7.268;2022-09-17T10:25:32;13.30;99.90
49218;DHT22;35045;51.194;7.268;2022-09-17T10:28:02;13.50;99.90
49218;DHT22;35045;51.194;7.268;2022-09-17T10:30:29;13.30;99.90
49218;DHT22;35045;51.194;7.268;2022-09-17T10:33:21;13.10;99.90
49218;DHT22;35045;51.194;7.268;2022-09-17T10:35:59;13.00;99.90
49218;DHT22;35045;51.194;7.268;2022-09-17T10:38:37;13.00;99.90
49218;DHT22;35045;51.194;7.268;2022-09-17T10:41:30;13.00;99.90
49218;DHT22;35045;51.194;7.268;2022-09-17T10:43:56;13.00;99.90
49218;DHT22;35045;51.194;7.268;2022-09-17T10:46:41;13.10;99.90
49218;DHT22;35045;51.194;7.268;2022-09-17T11:00:23;13.20;99.90
49218;DHT22;35045;51.194;7.268;2022-09-17T11:06:01;13.00;99.90
49218;DHT22;35045;51.194;7.268;2022-09-17T11:14:02;12.80;99.90
49218;DHT22;35045;51.194;7.268;2022-09-17T11:17:02;12.90;99.90
49218;DHT22;35045;51.194;7.268;2022-09-17T11:19:56;13.00;99.90
49218;DHT22;35045;51.194;7.268;2022-09-17T11:27:50;12.50;99.90
49218;DHT22;35045;51.194;7.268;2022-09-17T11:36:00;12.80;99.90
49218;DHT22;35045;51.194;7.268;2022-09-17T11:38:33;13.20;99.90
49218;DHT22;35045;51.194;7.268;2022-09-17T11:41:12;13.20;99.90
49218;DHT22;35045;51.194;7.268;2022-09-17T11:46:29;13.10;99.90
49218;DHT22;35045;51.194;7.268;2022-09-17T11:51:43;13.10;99.90
49218;DHT22;35045;51.194;7.268;2022-09-17T11:56:53;13.10;99.90
49218;DHT22;35045;51.194;7.268;2022-09-17T11:59:53;12.80;99.90
49218;DHT22;35045;51.194;7.268;2022-09-17T12:02:33;12.00;99.90
49218;DHT22;35045;51.194;7.268;2022-09-17T12:05:09;11.20;99.90
49218;DHT22;35045;51.194;7.268;2022-09-17T12:10:21;10.70;99.90
49218;DHT22;35045;51.194;7.268;2022-09-17T12:13:01;10.60;99.90
49218;DHT22;35045;51.194;7.268;2022-09-17T12:15:30;10.60;99.90
49218;DHT22;35045;51.194;7.268;2022-09-17T12:20:56;10.80;99.90
49218;DHT22;35045;51.194;7.268;2022-09-17T12:31:34;10.70;99.90
49218;DHT22;35045;51.194;7.268;2022-09-17T12:34:21;10.70;99.90
49218;DHT22;35045;51.194;7.268;2022-09-17T12:37:12;10.70;99.90
49218;DHT22;35045;51.194;7.268;2022-09-17T12:42:30;11.00;99.90
49218;DHT22;35045;51.194;7.268;2022-09-17T12:45:20;11.20;99.90
49218;DHT22;35045;51.194;7.268;2022-09-17T12:51:30;12.40;99.90
49218;DHT22;35045;51.194;7.268;2022-09-17T12:53:36;12.60;99.90
49218;DHT22;35045;51.194;7.268;2022-09-17T12:56:39;12.40;99.90
49218;DHT22;35045;51.194;7.268;2022-09-17T12:59:14;12.40;99.90
49218;DHT22;35045;51.194;7.268;2022-09-17T13:01:54;12.20;99.90
49218;DHT22;35045;51.194;7.268;2022-09-17T13:04:51;11.90;99.90
49218;DHT22;35045;51.194;7.268;2022-09-17T13:07:46;11.60;99.90
49218;DHT22;35045;51.194;7.268;2022-09-17T13:10:40;11.40;99.90
49218;DHT22;35045;51.194;7.268;2022-09-17T13:21:58;12.70;99.90
49218;DHT22;35045;51.194;7.268;2022-09-17T13:24:27;13.20;99.90
49218;DHT22;35045;51.194;7.268;2022-09-17T13:26:56;13.90;99.90
49218;DHT22;35045;51.194;7.268;2022-09-17T13:42:56;15.60;99.90
49218;DHT22;35045;51.194;7.268;2022-09-17T13:45:24;15.80;99.90
49218;DHT22;35045;51.194;7.268;2022-09-17T13:48:07;16.00;99.90
49218;DHT22;35045;51.194;7.268;2022-09-17T13:50:39;16.10;99.90
49218;DHT22;35045;51.194;7.268;2022-09-17T13:55:50;16.30;99.90
49218;DHT22;35045;51.194;7.268;2022-09-17T14:14:38;15.20;99.90
49218;DHT22;35045;51.194;7.268;2022-09-17T14:19:46;14.20;99.90
49218;DHT22;35045;51.194;7.268;2022-09-17T14:22:21;13.90;99.90
49218;DHT22;35045;51.194;7.268;2022-09-17T14:24:51;13.30;99.90
49218;DHT22;35045;51.194;7.268;2022-09-17T14:27:42;12.40;99.90
49218;DHT22;35045;51.194;7.268;2022-09-17T14:35:40;11.40;99.90
49218;DHT22;35045;51.194;7.268;2022-09-17T14:38:13;11.30;99.90
49218;DHT22;35045;51.194;7.268;2022-09-17T14:40:43;11.30;99.90
49218;DHT22;35045;51.194;7.268;2022-09-17T14:43:17;11.20;99.90
49218;DHT22;35045;51.194;7.268;2022-09-17T14:45:47;11.30;99.90
49218;DHT22;35045;51.194;7.268;2022-09-17T14:48:23;11.30;99.90
49218;DHT22;35045;51.194;7.268;2022-09-17T14:50:51;11.40;99.90
49218;DHT22;35045;51.194;7.268;2022-09-17T14:53:18;11.50;99.90
49218;DHT22;35045;51.194;7.268;2022-09-17T14:55:49;11.70;99.90
49218;DHT22;35045;51.194;7.268;2022-09-17T14:58:35;11.90;99.90
49218;DHT22;35045;51.194;7.268;2022-09-17T15:01:02;11.80;99.90
49218;DHT22;35045;51.194;7.268;2022-09-17T15:03:28;11.80;99.90
49218;DHT22;35045;51.194;7.268;2022-09-17T15:05:54;11.90;99.90
49218;DHT22;35045;51.194;7.268;2022-09-17T15:08:25;12.00;99.90
49218;DHT22;35045;51.194;7.268;2022-09-17T15:13:28;12.00;99.90
49218;DHT22;35045;51.194;7.268;2022-09-17T15:16:09;11.90;99.90
49218;DHT22;35045;51.194;7.268;2022-09-17T15:18:50;11.80;99.90
49218;DHT22;35045;51.194;7.268;2022-09-17T15:26:44;12.20;99.90
49218;DHT22;35045;51.194;7.268;2022-09-17T15:29:14;12.20;99.90
49218;DHT22;35045;51.194;7.268;2022-09-17T15:31:40;12.30;99.90
49218;DHT22;35045;51.194;7.268;2022-09-17T15:34:10;12.30;99.90
49218;DHT22;35045;51.194;7.268;2022-09-17T15:36:36;12.20;99.90
49218;DHT22;35045;51.194;7.268;2022-09-17T15:39:28;12.20;99.90
49218;DHT22;35045;51.194;7.268;2022-09-17T15:41:56;12.20;99.90
49218;DHT22;35045;51.194;7.268;2022-09-17T15:44:24;12.20;99.90
49218;DHT22;35045;51.194;7.268;2022-09-17T15:46:55;12.40;99.90
49218;DHT22;35045;51.194;7.268;2022-09-17T15:49:33;12.90;99.90
49218;DHT22;35045;51.194;7.268;2022-09-17T15:52:26;13.10;99.90
49218;DHT22;35045;51.194;7.268;2022-09-17T15:54:53;13.00;99.90
49218;DHT22;35045;51.194;7.268;2022-09-17T15:57:20;12.80;99.90
49218;DHT22;35045;51.194;7.268;2022-09-17T15:59:47;12.60;99.90
49218;DHT22;35045;51.194;7.268;2022-09-17T16:02:28;12.50;99.90
49218;DHT22;35045;51.194;7.268;2022-09-17T16:07:45;12.50;99.90
49218;DHT22;35045;51.194;7.268;2022-09-17T16:10:13;12.50;99.90
49218;DHT22;35045;51.194;7.268;2022-09-17T16:12:40;12.40;99.90
49218;DHT22;35045;51.194;7.268;2022-09-17T16:15:07;12.40;99.90
49218;DHT22;35045;51.194;7.268;2022-09-17T16:22:41;12.40;99.90
49218;DHT22;35045;51.194;7.268;2022-09-17T16:25:08;12.10;99.90
49218;DHT22;35045;51.194;7.268;2022-09-17T16:27:46;11.60;99.90
49218;DHT22;35045;51.194;7.268;2022-09-17T16:30:16;11.20;99.90
49218;DHT22;35045;51.194;7.268;2022-09-17T16:32:42;11.00;99.90
49218;DHT22;35045;51.194;7.268;2022-09-17T16:35:16;11.00;99.90
49218;DHT22;35045;51.194;7.268;2022-09-17T16:37:43;11.00;99.90
49218;DHT22;35045;51.194;7.268;2022-09-17T16:40:12;10.80;99.90
49218;DHT22;35045;51.194;7.268;2022-09-17T16:42:39;10.70;99.90
49218;DHT22;35045;51.194;7.268;2022-09-17T16:45:06;10.50;99.90
49218;DHT22;35045;51.194;7.268;2022-09-17T16:47:33;10.30;99.90
49218;DHT22;35045;51.194;7.268;2022-09-17T16:50:10;10.20;99.90
49218;DHT22;35045;51.194;7.268;2022-09-17T16:52:36;10.00;99.90
49218;DHT22;35045;51.194;7.268;2022-09-17T16:55:03;9.90;99.90
49218;DHT22;35045;51.194;7.268;2022-09-17T16:57:30;9.90;99.90
49218;DHT22;35045;51.194;7.268;2022-09-17T16:59:57;9.90;99.90
49218;DHT22;35045;51.194;7.268;2022-09-17T17:02:23;10.00;99.90
49218;DHT22;35045;51.194;7.268;2022-09-17T17:04:50;10.10;99.90
49218;DHT22;35045;51.194;7.268;2022-09-17T17:07:16;10.10;99.90
49218;DHT22;35045;51.194;7.268;2022-09-17T17:09:42;10.20;99.90
49218;DHT22;35045;51.194;7.268;2022-09-17T17:12:08;10.20;99.90
49218;DHT22;35045;51.194;7.268;2022-09-17T17:14:34;10.20;99.90
49218;DHT22;35045;51.194;7.268;2022-09-17T17:17:00;10.20;99.90
49218;DHT22;35045;51.194;7.268;2022-09-17T17:19:27;10.10;99.90
49218;DHT22;35045;51.194;7.268;2022-09-17T17:21:55;10.10;99.90
49218;DHT22;35045;51.194;7.268;2022-09-17T17:24:21;10.10;99.90
49218;DHT22;35045;51.194;7.268;2022-09-17T17:26:48;10.00;99.90
49218;DHT22;35045;51.194;7.268;2022-09-17T17:29:14;9.90;99.90
49218;DHT22;35045;51.194;7.268;2022-09-17T17:31:41;9.90;99.90
49218;DHT22;35045;51.194;7.268;2022-09-17T17:34:08;9.80;99.90
49218;DHT22;35045;51.194;7.268;2022-09-17T17:36:34;9.90;99.90
49218;DHT22;35045;51.194;7.268;2022-09-17T17:39:00;9.90;99.90
49218;DHT22;35045;51.194;7.268;2022-09-17T17:41:27;9.90;99.90
49218;DHT22;35045;51.194;7.268;2022-09-17T17:43:54;9.90;99.90
49218;DHT22;35045;51.194;7.268;2022-09-17T17:46:21;9.90;99.90
49218;DHT22;35045;51.194;7.268;2022-09-17T17:48:48;9.80;99.90
49218;DHT22;35045;51.194;7.268;2022-09-17T17:51:15;9.80;99.90
49218;DHT22;35045;51.194;7.268;2022-09-17T17:53:44;9.80;99.90
49218;DHT22;35045;51.194;7.268;2022-09-17T17:56:11;9.80;99.90
49218;DHT22;35045;51.194;7.268;2022-09-17T17:58:38;9.90;99.90
49218;DHT22;35045;51.194;7.268;2022-09-17T18:01:16;9.90;99.90
49218;DHT22;35045;51.194;7.268;2022-09-17T18:03:43;9.90;99.90
49218;DHT22;35045;51.194;7.268;2022-09-17T18:06:10;9.90;99.90
49218;DHT22;35045;51.194;7.268;2022-09-17T18:08:38;9.90;99.90
49218;DHT22;35045;51.194;7.268;2022-09-17T18:11:05;10.00;99.90
49218;DHT22;35045;51.194;7.268;2022-09-17T18:13:37;9.90;99.90
49218;DHT22;35045;51.194;7.268;2022-09-17T18:16:04;10.00;99.90
49218;DHT22;35045;51.194;7.268;2022-09-17T18:18:33;9.90;99.90
49218;DHT22;35045;51.194;7.268;2022-09-17T18:21:02;9.90;99.90
49218;DHT22;35045;51.194;7.268;2022-09-17T18:23:28;10.00;99.90
49218;DHT22;35045;51.194;7.268;2022-09-17T18:25:56;9.90;99.90
49218;DHT22;35045;51.194;7.268;2022-09-17T18:28:23;10.00;99.90
49218;DHT22;35045;51.194;7.268;2022-09-17T18:30:49;10.00;99.90
49218;DHT22;35045;51.194;7.268;2022-09-17T18:33:20;10.00;99.90
49218;DHT22;35045;51.194;7.268;2022-09-17T18:35:48;10.10;99.90
49218;DHT22;35045;51.194;7.268;2022-09-17T18:38:16;10.10;99.90
49218;DHT22;35045;51.194;7.268;2022-09-17T18:40:42;10.20;99.90
49218;DHT22;35045;51.194;7.268;2022-09-17T18:43:09;10.20;99.90
49218;DHT22;35045;51.194;7.268;2022-09-17T18:45:35;10.20;99.90
49218;DHT22;35045;51.194;7.268;2022-09-17T18:48:04;10.30;99.90
49218;DHT22;35045;51.194;7.268;2022-09-17T18:50:31;10.30;99.90
49218;DHT22;35045;51.194;7.268;2022-09-17T18:52:57;10.30;99.90
49218;DHT22;35045;51.194;7.268;2022-09-17T18:55:23;10.30;99.90
49218;DHT22;35045;51.194;7.268;2022-09-17T18:57:50;10.30;99.90
49218;DHT22;35045;51.194;7.268;2022-09-17T19:00:18;10.30;99.90
49218;DHT22;35045;51.194;7.268;2022-09-17T19:02:47;10.30;99.90
49218;DHT22;35045;51.194;7.268;2022-09-17T19:05:14;10.30;99.90
49218;DHT22;35045;51.194;7.268;2022-09-17T19:07:46;10.30;99.90
49218;DHT22;35045;51.194;7.268;2022-09-17T19:10:13;10.30;99.90
49218;DHT22;35045;51.194;7.268;2022-09-17T19:12:40;10.30;99.90